Time;durP1;ratioP1;P1;durP2;ratioP2;P2;SDS_P1;SDS_P2;PMS_P1;PMS_P2;Temp;Humidity;BMP_temperature;BMP_pressure;BME280_temperature;BME280_humidity;BME280_pressure;Samples;Min_cycle;Max_cycle;Signal;HPM_P1;HPM_P2
2022/07/21 00:00:48;;;;;;;;;;;;;;;16.73;76.25;98416.09;4954841;28;20042;-91
2022/07/21 00:03:14;;;;;;;6.57;3.70;;;;;;;16.58;76.26;98392.25;4973590;28;19929;-91
2022/07/21 00:05:41;;;;;;;8.17;3.80;;;;;;;16.63;76.26;98391.94;4973459;28;20062;-91
2022/07/21 00:08:10;;;;;;;11.82;3.58;;;;;;;16.50;76.13;98376.78;4987118;28;20405;-91
2022/07/21 00:10:37;;;;;;;15.00;3.90;;;;;;;16.69;75.91;98395.94;4955412;28;20046;-91
2022/07/21 00:13:06;;;;;;;5.45;3.20;;;;;;;16.59;76.08;98383.59;4973779;28;20062;-92
2022/07/21 00:15:32;;;;;;;6.18;3.50;;;;;;;16.81;75.88;98419.75;4988985;28;20129;-90
2022/07/21 00:18:18;;;;;;;7.63;3.50;;;;;;;16.53;75.75;98365.78;4992812;28;21798;-90
2022/07/21 00:20:46;;;;;;;9.52;3.03;;;;;;;16.54;75.68;98378.41;4964368;28;20082;-91
2022/07/21 00:23:17;;;;;;;7.35;3.20;;;;;;;16.65;75.24;98379.34;4965718;28;20035;-91
2022/07/21 00:26:02;;;;;;;5.22;3.30;;;;;;;16.66;75.44;98372.66;4994557;28;20025;-91
2022/07/21 00:28:28;;;;;;;9.32;3.08;;;;;;;16.97;74.98;98414.03;4974081;28;20054;-91
2022/07/21 00:30:55;;;;;;;5.35;3.08;;;;;;;16.68;75.01;98373.06;4994615;28;20066;-92
2022/07/21 00:33:22;;;;;;;4.47;3.00;;;;;;;16.71;74.85;98370.72;4978204;28;20034;-91
2022/07/21 00:35:48;;;;;;;6.38;3.25;;;;;;;17.03;74.73;98423.56;4977144;28;20539;-90
2022/07/21 00:38:14;;;;;;;7.43;3.03;;;;;;;16.96;74.42;98409.69;4978745;28;20049;-91
2022/07/21 00:40:44;;;;;;;5.18;2.63;;;;;;;16.85;74.52;98404.03;4978444;28;20034;-92
2022/07/21 00:43:10;;;;;;;7.82;2.95;;;;;;;16.93;74.36;98399.41;4977362;28;20141;-93
2022/07/21 00:45:37;;;;;;;10.35;2.95;;;;;;;17.05;74.11;98418.44;4976748;28;20038;-91
2022/07/21 00:48:06;;;;;;;5.60;3.05;;;;;;;17.11;74.14;98419.69;4980975;28;20057;-92
2022/07/21 00:50:33;;;;;;;7.28;2.83;;;;;;;17.05;74.38;98421.19;4960271;28;20046;-93
2022/07/21 00:53:02;;;;;;;6.53;2.70;;;;;;;16.96;74.45;98390.38;4980148;28;20050;-94
2022/07/21 00:55:29;;;;;;;9.45;2.80;;;;;;;16.88;74.04;98392.22;4978343;28;20054;-91
2022/07/21 00:57:59;;;;;;;4.40;2.78;;;;;;;16.76;74.00;98362.16;4993724;28;20034;-91
2022/07/21 01:00:43;;;;;;;8.63;2.60;;;;;;;17.09;74.39;98414.56;5010889;28;20069;-91
2022/07/21 01:03:15;;;;;;;6.55;2.78;;;;;;;16.97;74.04;98406.53;4976290;28;20050;-90
2022/07/21 01:05:42;;;;;;;8.02;2.67;;;;;;;16.80;74.03;98366.53;4973632;28;20074;-91
2022/07/21 01:08:08;;;;;;;8.70;2.72;;;;;;;16.81;73.67;98376.38;4980326;28;20027;-89
2022/07/21 01:10:36;;;;;;;6.50;2.80;;;;;;;16.94;74.22;98406.50;4957547;28;20050;-94
2022/07/21 01:13:03;;;;;;;6.18;2.45;;;;;;;16.89;73.69;98394.63;4974206;28;20047;-91
2022/07/21 01:15:30;;;;;;;10.57;2.55;;;;;;;16.89;73.41;98402.91;4972197;28;20046;-92
2022/07/21 01:17:58;;;;;;;5.60;2.45;;;;;;;16.76;74.53;98365.69;4970935;28;20050;-90
2022/07/21 01:20:26;;;;;;;5.18;2.40;;;;;;;16.96;74.20;98393.91;4988590;28;20051;-96
2022/07/21 01:22:58;;;;;;;12.00;2.50;;;;;;;17.05;73.81;98418.44;4953603;28;20071;-91
2022/07/21 01:25:27;;;;;;;5.38;2.30;;;;;;;17.01;73.85;98418.41;4938414;29;20078;-92
2022/07/21 01:27:56;;;;;;;4.85;2.10;;;;;;;16.79;73.52;98378.75;4938641;28;20055;-92
2022/07/21 01:30:24;;;;;;;5.35;2.10;;;;;;;17.13;74.00;98425.66;4930431;29;20043;-92
2022/07/21 01:32:52;;;;;;;6.20;2.33;;;;;;;16.94;73.92;98401.78;4952558;29;20031;-92
2022/07/21 01:35:18;;;;;;;7.70;2.55;;;;;;;16.83;73.83;98387.84;4937802;28;20079;-92
2022/07/21 01:37:46;;;;;;;6.38;2.42;;;;;;;16.82;74.30;98389.03;4936223;28;20064;-92
2022/07/21 01:43:22;;;;;;;6.50;2.70;;;;;;;16.83;74.52;98398.09;4934015;29;20040;-91
2022/07/21 01:45:49;;;;;;;9.20;3.10;;;;;;;16.66;75.06;98380.94;4912133;29;20142;-91
2022/07/21 01:48:16;;;;;;;6.72;2.97;;;;;;;16.79;75.17;98400.81;4918334;29;20059;-92
2022/07/21 01:50:42;;;;;;;8.95;3.00;;;;;;;16.56;75.35;98364.25;4929163;29;20621;-91
2022/07/21 01:53:09;;;;;;;5.30;2.80;;;;;;;16.85;75.21;98381.94;4930584;29;20025;-91
2022/07/21 01:55:38;;;;;;;4.22;2.90;;;;;;;17.12;75.17;98426.81;4935599;29;20154;-91
2022/07/21 01:58:05;;;;;;;6.65;3.20;;;;;;;17.06;75.59;98418.09;4935600;29;20118;-91
2022/07/21 02:00:31;;;;;;;6.82;3.35;;;;;;;17.00;76.02;98405.00;4942216;28;20042;-96
2022/07/21 02:02:58;;;;;;;5.38;3.50;;;;;;;16.74;76.16;98365.25;4967187;28;20077;-91
2022/07/21 02:05:24;;;;;;;10.25;3.85;;;;;;;16.90;76.42;98381.63;4989217;28;20130;-91
2022/07/21 02:07:54;;;;;;;7.20;3.88;;;;;;;16.97;76.75;98403.78;4972397;28;20031;-91
2022/07/21 02:10:36;;;;;;;14.52;4.18;;;;;;;16.63;76.94;98359.59;4961439;28;20054;-91
2022/07/21 02:13:03;;;;;;;9.55;4.47;;;;;;;16.87;77.52;98396.16;4932414;28;20055;-91
2022/07/21 02:15:49;;;;;;;6.57;4.10;;;;;;;16.86;77.28;98395.38;4928185;29;20071;-91
2022/07/21 02:18:18;;;;;;;21.05;4.85;;;;;;;16.73;77.79;98373.91;4914558;29;20051;-91
2022/07/21 02:20:47;;;;;;;11.82;5.20;;;;;;;16.81;77.80;98379.16;4930326;28;20024;-91
2022/07/21 02:23:14;;;;;;;9.75;4.75;;;;;;;16.84;77.74;98388.66;4910963;29;20141;-91
2022/07/21 02:25:41;;;;;;;15.10;5.20;;;;;;;16.90;77.35;98396.22;4898763;29;20092;-96
2022/07/21 02:28:07;;;;;;;17.25;5.40;;;;;;;17.05;77.70;98427.53;4931002;29;20532;-91
2022/07/21 02:30:34;;;;;;;15.25;5.32;;;;;;;16.87;78.08;98401.69;4948480;28;20067;-91
2022/07/21 02:33:03;;;;;;;11.40;5.05;;;;;;;16.63;77.87;98359.59;4930482;29;20039;-91
2022/07/21 02:35:30;;;;;;;13.40;4.75;;;;;;;16.95;77.68;98400.59;4921534;29;20027;-90
2022/07/21 02:37:59;;;;;;;14.10;5.22;;;;;;;16.77;77.50;98366.50;4947037;29;20165;-91
2022/07/21 02:40:26;;;;;;;10.48;5.32;;;;;;;16.70;77.36;98361.66;4948667;28;20058;-91
2022/07/21 02:42:52;;;;;;;17.08;5.60;;;;;;;16.90;77.31;98396.22;4942407;29;20087;-91
2022/07/21 02:45:25;;;;;;;15.50;5.20;;;;;;;16.94;77.35;98389.94;4915126;29;20050;-91
2022/07/21 02:48:04;;;;;;;13.68;5.47;;;;;;;16.85;77.26;98374.47;4897659;28;20286;-91
2022/07/21 02:50:51;;;;;;;21.80;6.53;;;;;;;16.93;77.17;98380.88;4956138;28;20430;-91
2022/07/21 02:53:20;;;;;;;20.65;6.50;;;;;;;16.87;77.79;98379.63;4984537;28;20050;-90
2022/07/21 02:55:47;;;;;;;7.68;4.65;;;;;;;17.00;77.56;98403.03;4988126;28;20023;-90
2022/07/21 02:58:29;;;;;;;10.68;5.30;;;;;;;16.99;77.33;98398.69;4998755;28;20058;-90
2022/07/21 03:01:05;;;;;;;16.95;5.65;;;;;;;17.12;78.09;98421.31;4987142;28;20073;-90
2022/07/21 03:03:38;;;;;;;15.32;5.07;;;;;;;17.08;78.09;98418.47;4980507;28;20052;-90
2022/07/21 03:06:06;;;;;;;10.23;5.18;;;;;;;16.97;77.78;98401.00;4985835;28;20039;-89
2022/07/21 03:08:33;;;;;;;11.25;5.55;;;;;;;16.91;78.10;98380.44;4965033;28;20077;-90
2022/07/21 03:11:02;;;;;;;11.07;5.20;;;;;;;16.97;77.90;98389.19;5007453;28;20032;-90
2022/07/21 03:13:29;;;;;;;12.02;5.38;;;;;;;16.71;78.09;98351.41;4998338;28;20050;-90
2022/07/21 03:15:55;;;;;;;15.07;5.20;;;;;;;16.85;78.05;98376.41;4998844;28;20061;-89
2022/07/21 03:18:21;;;;;;;12.60;5.53;;;;;;;16.96;77.80;98374.59;4975959;28;20105;-90
2022/07/21 03:20:51;;;;;;;12.52;5.63;;;;;;;16.94;78.16;98382.44;4969973;28;20046;-92
2022/07/21 03:23:18;;;;;;;16.48;5.53;;;;;;;16.85;78.34;98354.34;4972280;28;20045;-90
2022/07/21 03:25:50;;;;;;;14.68;6.20;;;;;;;17.12;78.07;98388.16;4951078;28;20081;-90
2022/07/21 03:28:17;;;;;;;9.82;6.13;;;;;;;17.12;78.09;98386.19;4936401;29;20106;-90
2022/07/21 03:30:48;;;;;;;11.35;6.10;;;;;;;17.03;77.75;98376.63;4951538;28;20114;-90
2022/07/21 03:33:17;;;;;;;12.32;5.47;;;;;;;16.71;78.08;98332.09;4928414;29;20078;-90
2022/07/21 03:35:43;;;;;;;16.45;6.63;;;;;;;17.02;77.96;98386.06;4965376;28;20158;-90
2022/07/21 03:38:09;;;;;;;15.20;6.47;;;;;;;16.97;78.10;98362.38;4977740;28;20050;-90
2022/07/21 03:40:38;;;;;;;11.85;5.80;;;;;;;17.09;78.24;98384.19;4938201;29;20311;-89
2022/07/21 03:43:06;;;;;;;14.40;5.90;;;;;;;17.09;78.22;98367.63;4935979;29;20055;-90
2022/07/21 03:48:04;;;;;;;19.30;6.63;;;;;;;17.30;78.42;98407.66;4960962;28;20138;-89
2022/07/21 03:50:30;;;;;;;15.48;6.25;;;;;;;17.19;78.40;98384.69;4940438;28;20539;-90
2022/07/21 03:52:57;;;;;;;17.90;6.60;;;;;;;17.22;78.87;98383.91;4940976;28;20054;-91
2022/07/21 03:55:24;;;;;;;9.45;5.13;;;;;;;17.33;78.35;98399.41;4921375;29;20043;-91
2022/07/21 03:57:56;;;;;;;12.68;5.65;;;;;;;17.15;77.81;98381.88;4923719;28;20042;-91
2022/07/21 04:00:34;;;;;;;13.98;5.78;;;;;;;17.22;78.83;98398.53;4924425;28;20449;-90
2022/07/21 04:03:01;;;;;;;16.05;5.60;;;;;;;17.27;78.32;98395.41;4954521;28;20427;-91
2022/07/21 04:05:29;;;;;;;21.42;6.75;;;;;;;17.30;78.33;98397.41;4978105;28;20112;-91
2022/07/21 04:07:56;;;;;;;14.13;5.53;;;;;;;17.19;77.83;98390.22;4985624;28;20042;-89
2022/07/21 04:10:26;;;;;;;;;;;;;;;17.35;77.80;98399.84;4977691;28;20030;-88
2022/07/21 04:12:54;;;;;;;8.63;5.03;;;;;;;17.24;77.97;98389.84;4979382;28;20450;-90
2022/07/21 04:15:20;;;;;;;13.65;5.30;;;;;;;17.30;78.10;98404.91;4981984;28;20069;-90
2022/07/21 04:20:16;;;;;;;15.52;5.78;;;;;;;16.96;78.06;98360.00;4978140;28;20043;-93
2022/07/21 04:22:44;;;;;;;13.93;5.95;;;;;;;16.99;79.07;98387.63;4960815;28;20043;-93
2022/07/21 04:25:11;;;;;;;15.82;5.75;;;;;;;17.22;79.03;98412.34;4960046;28;20086;-93
2022/07/21 04:27:37;;;;;;;19.40;5.30;;;;;;;16.91;78.84;98358.34;4953527;28;20065;-93
2022/07/21 04:30:06;;;;;;;12.98;5.43;;;;;;;16.99;78.64;98362.78;4961989;28;20039;-93
2022/07/21 04:32:33;;;;;;;11.32;5.20;;;;;;;17.25;78.78;98383.97;4957227;28;20246;-92
2022/07/21 04:35:00;;;;;;;12.48;5.07;;;;;;;17.38;78.88;98409.31;4952000;28;20082;-92
2022/07/21 04:37:27;;;;;;;13.52;5.32;;;;;;;17.26;78.57;98385.53;4973182;28;20035;-92
2022/07/21 04:39:53;;;;;;;19.30;5.10;;;;;;;17.08;77.86;98365.22;4972966;28;20138;-92
2022/07/21 04:42:21;;;;;;;10.70;5.38;;;;;;;17.23;78.02;98382.75;4973013;28;20047;-92
2022/07/21 04:44:48;;;;;;;13.98;5.60;;;;;;;17.38;78.53;98396.31;4972486;28;20519;-92
2022/07/21 04:49:43;;;;;;;12.57;5.03;;;;;;;17.21;78.78;98361.00;4983584;28;20047;-91
2022/07/21 04:52:09;;;;;;;9.60;5.43;;;;;;;17.34;78.79;98370.59;4956605;28;20039;-92
2022/07/21 04:54:36;;;;;;;9.35;3.80;;;;;;;17.48;77.38;98405.06;4966015;28;20133;-92
2022/07/21 04:57:05;;;;;;;7.57;3.95;;;;;;;17.20;77.24;98350.34;4993624;28;20062;-93
2022/07/21 04:59:33;;;;;;;15.75;4.55;;;;;;;17.31;77.30;98365.06;4979449;28;20100;-92
2022/07/21 05:01:59;;;;;;;12.65;4.70;;;;;;;17.27;77.41;98353.19;4960221;28;20039;-92
2022/07/21 05:04:27;;;;;;;;;;;;;;;17.55;77.67;98400.41;4980853;28;20038;-93
2022/07/21 05:06:53;;;;;;;18.38;4.75;;;;;;;17.63;78.08;98404.00;4983140;28;19949;-91
2022/07/21 05:09:20;;;;;;;11.02;5.07;;;;;;;17.42;78.32;98382.53;4965574;28;20492;-94
2022/07/21 05:11:46;;;;;;;12.63;4.65;;;;;;;17.55;77.78;98391.31;4959968;28;20519;-92
2022/07/21 05:14:13;;;;;;;14.43;5.55;;;;;;;17.45;78.87;98365.19;4970149;28;20054;-91
2022/07/21 05:16:39;;;;;;;14.10;5.63;;;;;;;17.67;78.50;98395.75;4964012;28;20096;-90
2022/07/21 05:19:05;;;;;;;15.18;6.07;;;;;;;17.54;78.30;98368.41;4957814;28;20842;-91
2022/07/21 05:21:31;;;;;;;17.30;7.00;;;;;;;17.48;77.77;98366.38;4964152;28;20436;-89
2022/07/21 05:23:57;;;;;;;13.63;6.83;;;;;;;17.61;77.17;98382.31;4947770;28;20291;-89
2022/07/21 05:26:23;;;;;;;18.73;7.47;;;;;;;17.84;78.05;98412.50;4949936;28;20030;-90
2022/07/21 05:28:49;;;;;;;20.83;7.20;;;;;;;17.68;76.00;98389.03;4962846;28;20124;-90
2022/07/21 05:31:16;;;;;;;13.95;7.00;;;;;;;17.65;77.27;98389.81;4962207;28;20349;-89
2022/07/21 05:33:42;;;;;;;29.65;7.57;;;;;;;17.72;75.88;98412.78;4976099;28;20046;-90
2022/07/21 05:36:08;;;;;;;20.40;8.07;;;;;;;17.23;76.01;98353.16;4959785;28;20136;-86
2022/07/21 05:38:34;;;;;;;36.38;9.98;;;;;;;17.43;75.99;98372.28;4966789;28;20129;-90
2022/07/21 05:41:02;;;;;;;28.13;7.70;;;;;;;17.51;75.88;98385.75;4970959;28;20038;-91
2022/07/21 05:43:30;;;;;;;32.17;7.78;;;;;;;17.18;75.59;98339.69;4974364;28;20030;-90
2022/07/21 05:45:57;;;;;;;37.80;9.25;;;;;;;17.30;76.65;98377.28;4954428;28;20065;-88
2022/07/21 05:48:23;;;;;;;26.90;8.23;;;;;;;17.30;76.29;98377.28;4958839;28;20037;-89
2022/07/21 05:50:50;;;;;;;28.15;8.55;;;;;;;17.43;76.89;98408.97;4955789;28;20072;-90
2022/07/21 05:53:16;;;;;;;27.60;8.23;;;;;;;17.23;76.91;98382.75;4968406;28;20061;-91
2022/07/21 05:55:42;;;;;;;36.08;8.88;;;;;;;17.13;77.36;98364.91;4964408;28;20113;-90
2022/07/21 05:58:09;;;;;;;24.52;8.52;;;;;;;17.03;77.61;98368.34;4966538;28;20179;-93
2022/07/21 06:00:35;;;;;;;24.77;7.77;;;;;;;17.09;77.91;98383.41;4955514;28;20057;-91
2022/07/21 06:03:01;;;;;;;23.90;8.40;;;;;;;17.07;78.17;98358.13;4967302;28;20285;-92
2022/07/21 06:05:27;;;;;;;32.50;8.95;;;;;;;17.27;77.79;98380.81;4994182;28;20339;-91
2022/07/21 06:07:53;;;;;;;30.90;10.07;;;;;;;17.31;77.75;98373.34;4950404;28;20050;-90
2022/07/21 06:10:20;;;;;;;26.90;9.27;;;;;;;17.48;77.84;98389.31;4966525;28;20050;-91
2022/07/21 06:12:47;;;;;;;32.95;10.10;;;;;;;17.65;77.83;98414.69;4982537;28;20146;-91
2022/07/21 06:15:17;;;;;;;42.08;10.15;;;;;;;17.21;78.18;98361.00;4970077;28;20104;-90
2022/07/21 06:17:45;;;;;;;27.45;8.02;;;;;;;17.32;77.60;98386.78;4977333;28;20046;-92
2022/07/21 06:20:13;;;;;;;51.88;11.43;;;;;;;17.37;78.96;98380.91;4969650;28;20058;-91
2022/07/21 06:22:39;;;;;;;51.33;11.68;;;;;;;17.58;78.64;98429.22;4972957;28;20376;-93
2022/07/21 06:25:06;;;;;;;39.42;8.73;;;;;;;17.13;78.13;98368.44;4963927;28;20108;-94
2022/07/21 06:27:33;;;;;;;57.53;10.43;;;;;;;17.11;79.25;98381.81;4972959;28;20693;-94
2022/07/21 06:29:59;;;;;;;34.25;9.93;;;;;;;17.30;80.62;98415.94;4958451;28;20045;-88
2022/07/21 06:32:25;;;;;;;54.58;9.50;;;;;;;17.12;80.87;98404.75;4977093;28;20124;-93
2022/07/21 06:34:52;;;;;;;18.65;6.00;;;;;;;17.34;79.79;98436.09;4952771;28;20050;-90
2022/07/21 06:37:18;;;;;;;22.08;5.75;;;;;;;16.88;80.49;98367.38;4958476;28;20046;-91
2022/07/21 06:39:45;;;;;;;62.58;10.10;;;;;;;17.17;80.35;98398.06;4976192;28;20038;-92
2022/07/21 06:42:11;;;;;;;53.42;10.48;;;;;;;17.28;80.35;98423.81;4974847;28;20643;-92
2022/07/21 06:44:37;;;;;;;64.18;14.98;;;;;;;17.34;80.40;98434.13;5007794;28;20065;-91
2022/07/21 06:47:04;;;;;;;19.93;8.60;;;;;;;17.42;81.11;98432.25;5014591;28;20052;-91
2022/07/21 06:49:30;;;;;;;;;;;;;;;17.54;80.30;98459.59;4983103;28;20380;-94
2022/07/21 06:51:56;;;;;;;;;;;;;;;17.55;79.97;98463.16;4984443;28;19921;-91
2022/07/21 06:54:23;;;;;;;74.72;13.25;;;;;;;17.42;80.85;98432.25;4967938;28;20386;-93
2022/07/21 06:56:49;;;;;;;51.60;9.70;;;;;;;17.36;80.48;98437.31;4984156;28;20052;-91
2022/07/21 06:59:15;;;;;;;45.95;7.55;;;;;;;17.20;79.67;98402.84;4967518;28;20048;-91
2022/07/21 07:01:42;;;;;;;78.30;10.98;;;;;;;17.46;79.68;98429.53;4963467;28;20045;-89
2022/07/21 07:04:08;;;;;;;80.82;13.52;;;;;;;17.79;80.13;98470.13;4978844;28;20134;-89
2022/07/21 07:06:34;;;;;;;65.17;11.40;;;;;;;17.95;79.51;98469.88;4980343;28;20083;-90
2022/07/21 07:09:00;;;;;;;36.92;10.30;;;;;;;17.77;77.28;98436.53;4962662;28;20091;-88
2022/07/21 07:11:27;;;;;;;58.17;10.35;;;;;;;17.84;77.00;98445.66;4956666;28;20092;-91
2022/07/21 07:13:53;;;;;;;56.33;11.32;;;;;;;18.13;77.48;98475.53;4949215;28;20046;-92
2022/07/21 07:16:19;;;;;;;70.47;10.27;;;;;;;18.06;77.84;98451.38;4978452;28;20057;-92
2022/07/21 07:18:46;;;;;;;31.40;7.25;;;;;;;18.06;77.10;98466.00;4978837;28;20042;-91
2022/07/21 07:21:12;;;;;;;27.63;6.67;;;;;;;18.20;76.90;98486.63;4980721;28;20045;-90
2022/07/21 07:23:39;;;;;;;36.45;7.45;;;;;;;18.01;77.16;98455.31;4976705;28;20042;-91
2022/07/21 07:26:05;;;;;;;16.60;6.03;;;;;;;18.16;76.10;98480.28;4960428;28;20044;-90
2022/07/21 07:28:32;;;;;;;100.20;11.30;;;;;;;18.27;76.39;98493.00;4944158;28;20042;-91
2022/07/21 07:30:58;;;;;;;61.58;8.25;;;;;;;18.03;76.48;98472.28;4945855;28;20030;-90
2022/07/21 07:33:27;;;;;;;18.92;6.03;;;;;;;18.09;76.95;98489.34;4996636;28;20046;-88
2022/07/21 07:35:56;;;;;;;18.50;5.50;;;;;;;18.21;76.36;98489.03;4983219;28;20060;-88
2022/07/21 07:38:22;;;;;;;12.93;5.22;;;;;;;18.22;77.17;98476.78;4962524;28;20443;-88
2022/07/21 07:40:48;;;;;;;21.65;6.60;;;;;;;18.15;77.92;98460.13;4977290;28;20085;-88
2022/07/21 07:43:15;;;;;;;18.02;5.95;;;;;;;18.46;77.37;98483.66;4986886;28;20041;-89
2022/07/21 07:45:41;;;;;;;13.63;5.03;;;;;;;18.82;76.93;98513.56;4964177;28;20045;-89
2022/07/21 07:48:07;;;;;;;31.90;7.10;;;;;;;18.85;76.46;98499.72;4996463;28;20292;-90
2022/07/21 07:50:33;;;;;;;16.77;6.07;;;;;;;18.92;75.47;98496.97;4964637;28;20049;-90
2022/07/21 07:53:00;;;;;;;11.30;6.53;;;;;;;19.19;74.55;98522.41;4964037;28;20037;-89
2022/07/21 07:55:27;;;;;;;10.75;5.60;;;;;;;19.35;75.07;98532.38;5014429;28;20034;-88
2022/07/21 07:57:54;;;;;;;49.17;9.48;;;;;;;19.53;72.48;98530.44;4963281;28;20072;-88
2022/07/21 08:00:20;;;;;;;66.70;9.70;;;;;;;19.71;71.27;98516.66;4979013;28;20048;-87
2022/07/21 08:02:49;;;;;;;33.65;8.05;;;;;;;20.00;70.56;98549.97;5012624;28;20046;-87
2022/07/21 08:05:18;;;;;;;38.92;9.38;;;;;;;19.92;70.77;98543.63;4978464;28;20041;-87
2022/07/21 08:07:45;;;;;;;30.92;8.70;;;;;;;19.74;71.58;98526.19;4994999;28;20050;-87
2022/07/21 08:10:13;;;;;;;75.68;13.55;;;;;;;19.92;70.95;98530.53;4995668;28;20034;-88
2022/07/21 08:12:41;;;;;;;62.17;10.98;;;;;;;19.90;69.71;98510.75;4996158;28;20499;-88
2022/07/21 08:15:08;;;;;;;23.92;9.88;;;;;;;20.26;71.68;98546.81;4979582;28;20087;-87
2022/07/21 08:17:34;;;;;;;;;;;;;;;20.25;67.55;98559.09;4995568;28;20040;-88
2022/07/21 08:20:00;;;;;;;27.23;10.38;;;;;;;20.19;68.07;98544.81;4994775;28;20045;-88
2022/07/21 08:22:29;;;;;;;29.02;9.60;;;;;;;20.46;69.51;98563.06;4995387;28;20037;-88
2022/07/21 08:24:55;;;;;;;;;;;;;;;20.49;67.64;98568.63;4996418;28;20050;-86
2022/07/21 08:27:23;;;;;;;19.38;7.90;;;;;;;20.45;67.93;98542.06;5013806;28;19921;-87
2022/07/21 08:29:49;;;;;;;61.67;10.55;;;;;;;20.60;67.66;98519.47;5013927;28;20095;-86
2022/07/21 08:32:17;;;;;;;40.40;12.60;;;;;;;20.75;68.16;98547.19;4989376;28;20416;-87
2022/07/21 08:34:45;;;;;;;20.00;9.63;;;;;;;20.81;64.96;98531.72;4978011;28;20056;-87
2022/07/21 08:37:11;;;;;;;43.08;12.38;;;;;;;20.80;67.91;98547.59;4993722;28;20050;-87
2022/07/21 08:39:39;;;;;;;18.15;7.93;;;;;;;20.89;66.21;98558.25;4995984;28;20412;-87
2022/07/21 08:42:10;;;;;;;18.58;7.57;;;;;;;20.69;65.69;98541.25;4979966;28;20085;-87
2022/07/21 08:44:38;;;;;;;20.63;8.75;;;;;;;20.67;67.02;98553.97;4978589;28;20125;-86
2022/07/21 08:47:05;;;;;;;17.55;8.70;;;;;;;20.75;66.45;98569.41;4995039;28;20081;-88
2022/07/21 08:49:34;;;;;;;40.17;9.70;;;;;;;20.70;64.80;98553.16;4980065;28;20408;-89
2022/07/21 08:52:01;;;;;;;32.47;7.90;;;;;;;20.73;64.43;98550.38;4964285;28;20053;-87
2022/07/21 08:54:27;;;;;;;15.05;6.78;;;;;;;20.96;65.64;98568.56;4980304;28;20042;-89
2022/07/21 08:56:54;;;;;;;50.80;13.73;;;;;;;21.04;64.14;98592.38;4994895;28;20051;-88
2022/07/21 08:59:22;;;;;;;108.57;16.13;;;;;;;20.71;65.65;98549.97;4979318;28;20042;-89
2022/07/21 09:01:48;;;;;;;42.13;11.95;;;;;;;20.83;65.68;98579.34;4996911;28;20042;-90
2022/07/21 09:04:26;;;;;;;;;;;;;;;20.87;65.16;98602.34;4995936;28;20035;-89
2022/07/21 09:07:06;;;;;;;118.22;16.65;;;;;;;20.93;65.26;98608.28;4967819;28;20379;-89
2022/07/21 09:09:35;;;;;;;46.45;11.63;;;;;;;20.60;65.97;98594.44;4978217;28;20061;-87
2022/07/21 09:12:06;;;;;;;36.13;9.75;;;;;;;20.52;64.52;98586.50;4976341;28;20091;-87
2022/07/21 09:14:35;;;;;;;79.30;15.80;;;;;;;20.63;63.52;98617.84;4944778;28;20568;-90
2022/07/21 09:17:03;;;;;;;72.45;15.15;;;;;;;20.53;65.54;98593.63;4926141;29;20128;-88
2022/07/21 09:19:35;;;;;;;100.93;17.10;;;;;;;21.02;65.76;98626.09;4926102;29;20111;-88
2022/07/21 09:22:05;;;;;;;110.00;16.02;;;;;;;21.14;63.35;98622.13;4926043;29;20043;-88
2022/07/21 09:24:39;;;;;;;76.72;15.30;;;;;;;21.31;63.78;98631.59;4963347;28;20038;-88
2022/07/21 09:27:14;;;;;;;39.33;12.75;;;;;;;21.13;63.01;98626.09;4928457;28;20542;-88
2022/07/21 09:29:43;;;;;;;87.43;15.48;;;;;;;20.80;63.84;98625.38;4962258;28;20465;-88
2022/07/21 09:32:25;;;;;;;61.70;14.05;;;;;;;20.79;64.93;98634.88;4928364;28;20052;-87
2022/07/21 09:35:00;;;;;;;76.13;16.02;;;;;;;20.89;65.25;98636.06;4954357;28;20078;-89
2022/07/21 09:37:30;;;;;;;84.35;17.55;;;;;;;20.95;62.74;98645.56;4979589;28;20046;-90
2022/07/21 09:40:06;;;;;;;98.10;15.13;;;;;;;21.07;62.15;98644.38;4995162;28;20049;-87
2022/07/21 09:42:38;;;;;;;87.80;18.20;;;;;;;20.95;64.33;98617.78;4979569;28;20172;-89
2022/07/21 09:45:13;;;;;;;50.80;12.35;;;;;;;20.96;63.09;98616.63;4979341;28;20038;-89
2022/07/21 09:47:41;;;;;;;34.00;11.80;;;;;;;21.05;63.84;98630.09;4962650;28;20054;-89
2022/07/21 09:50:09;;;;;;;30.83;10.85;;;;;;;21.06;63.77;98632.47;4950696;28;20037;-91
2022/07/21 09:52:38;;;;;;;48.88;11.02;;;;;;;21.42;62.54;98651.06;4946740;28;20042;-90
2022/07/21 09:55:08;;;;;;;43.85;11.48;;;;;;;21.44;64.19;98618.09;4959976;28;20078;-90
2022/07/21 09:57:41;;;;;;;36.30;10.23;;;;;;;21.66;61.63;98647.41;4967088;28;20041;-89
2022/07/21 10:00:14;;;;;;;27.77;7.85;;;;;;;21.54;60.67;98639.50;4978185;28;20452;-90
2022/07/21 10:02:43;;;;;;;30.33;7.70;;;;;;;21.82;59.14;98666.44;4981080;28;20050;-88
2022/07/21 10:05:15;;;;;;;24.48;6.30;;;;;;;21.41;59.13;98614.13;4998128;28;20046;-91
2022/07/21 10:07:45;;;;;;;28.17;7.63;;;;;;;21.45;61.56;98616.91;4959145;28;20619;-89
2022/07/21 10:10:17;;;;;;;22.85;6.60;;;;;;;21.47;60.07;98606.16;4973721;28;20069;-91
2022/07/21 10:12:46;;;;;;;28.10;9.32;;;;;;;21.60;58.22;98626.78;4968723;28;20086;-90
2022/07/21 10:15:12;;;;;;;23.85;6.43;;;;;;;21.51;59.07;98585.47;4974936;28;20038;-88
2022/07/21 10:17:39;;;;;;;38.97;8.45;;;;;;;22.05;59.60;98638.88;4976903;28;20121;-89
2022/07/21 10:20:18;;;;;;;23.27;7.32;;;;;;;22.13;57.84;98644.41;4958981;28;20141;-89
2022/07/21 10:23:23;;;;;;;18.80;6.60;;;;;;;22.46;57.18;98668.06;4976021;28;20051;-93
2022/07/21 10:25:50;;;;;;;40.83;7.43;;;;;;;22.45;56.48;98652.53;4940513;28;20603;-93
2022/07/21 10:28:23;;;;;;;25.58;6.47;;;;;;;22.51;55.59;98634.19;4922027;29;20043;-90
2022/07/21 10:31:21;;;;;;;13.45;5.85;;;;;;;22.77;54.57;98665.44;4913635;29;20055;-88
2022/07/21 10:33:58;;;;;;;18.05;6.15;;;;;;;22.88;54.26;98661.38;4952622;29;20680;-89
2022/07/21 10:36:27;;;;;;;16.92;5.47;;;;;;;22.85;52.79;98664.97;4938654;29;20059;-92
2022/07/21 10:39:17;;;;;;;26.45;6.07;;;;;;;22.87;54.49;98665.34;4922480;29;20051;-91
2022/07/21 10:41:46;;;;;;;10.27;5.50;;;;;;;22.89;55.28;98651.00;4939074;29;20074;-92
2022/07/21 10:44:27;;;;;;;26.20;5.25;;;;;;;22.88;54.58;98663.34;4924180;29;20115;-91
2022/07/21 10:47:03;;;;;;;19.90;6.13;;;;;;;22.94;53.92;98645.00;4943220;28;20046;-91
2022/07/21 10:49:44;;;;;;;27.45;6.32;;;;;;;23.29;50.73;98666.19;4943053;29;20047;-90
2022/07/21 10:52:35;;;;;;;14.65;4.70;;;;;;;23.40;49.31;98666.06;4924199;29;20047;-92
2022/07/21 10:55:10;;;;;;;18.17;5.75;;;;;;;23.33;50.75;98674.50;4927669;29;20128;-91
2022/07/21 10:57:41;;;;;;;15.15;4.97;;;;;;;23.20;51.53;98675.00;4944021;29;20043;-92
2022/07/21 11:00:24;;;;;;;7.68;4.15;;;;;;;23.00;51.06;98676.81;4912333;28;20498;-95
2022/07/21 11:03:00;;;;;;;19.05;4.93;;;;;;;22.63;51.79;98642.06;4960911;28;20055;-91
2022/07/21 11:05:31;;;;;;;13.90;4.75;;;;;;;22.88;50.78;98658.59;4946079;28;20042;-90
2022/07/21 11:08:21;;;;;;;20.42;5.45;;;;;;;23.09;50.80;98673.56;4980688;28;20106;-95
2022/07/21 11:10:49;;;;;;;7.45;4.78;;;;;;;22.85;52.10;98631.53;4970563;28;20097;-92
2022/07/21 11:13:19;;;;;;;8.93;5.00;;;;;;;23.08;51.90;98653.25;4957231;28;20069;-91
2022/07/21 11:15:51;;;;;;;50.25;5.78;;;;;;;23.01;49.17;98674.81;4973236;28;20043;-94
2022/07/21 11:18:20;;;;;;;39.97;4.82;;;;;;;22.61;50.92;98643.69;4962892;28;20049;-92
2022/07/21 11:21:12;;;;;;;58.72;6.00;;;;;;;22.78;52.28;98717.19;4967549;28;20043;-92
2022/07/21 11:23:55;;;;;;;75.63;7.00;;;;;;;22.49;54.72;98740.47;4975043;28;20073;-89
2022/07/21 11:26:25;;;;;;;82.65;7.63;;;;;;;22.14;58.16;98746.97;4950511;28;20034;-88
2022/07/21 11:29:17;;;;;;;71.50;7.43;;;;;;;21.93;59.00;98739.50;4967444;28;20042;-91
2022/07/21 11:31:47;;;;;;;34.47;5.32;;;;;;;21.42;60.10;98707.47;4969082;28;20054;-90
2022/07/21 11:34:14;;;;;;;29.70;5.60;;;;;;;21.57;61.98;98753.53;4973569;28;20653;-88
2022/07/21 11:36:40;;;;;;;;;;;;;;;21.55;61.97;98750.34;4981764;28;20496;-89
2022/07/21 11:39:15;;;;;;;20.13;5.57;;;;;;;21.24;62.97;98726.94;4967087;28;19922;-88
2022/07/21 11:41:42;;;;;;;26.33;6.10;;;;;;;21.40;62.95;98745.22;4977672;28;20049;-89
2022/07/21 11:44:11;;;;;;;36.28;7.38;;;;;;;21.25;64.31;98724.94;4978127;28;20038;-88
2022/07/21 11:46:49;;;;;;;79.05;11.25;;;;;;;21.28;64.18;98733.28;4977217;28;20042;-89